Time;durP1;ratioP1;P1;durP2;ratioP2;P2;SDS_P1;SDS_P2;PMS_P1;PMS_P2;Temp;Humidity;BMP_temperature;BMP_pressure;BME280_temperature;BME280_humidity;BME280_pressure;Samples;Min_cycle;Max_cycle;Signal;HPM_P1;HPM_P2
2022/03/28 09:59:23;;;;;;;9.48;4.70;;;;;;;22.84;49.47;99157.31;1806191;79;25463;-89
2022/03/28 10:01:50;;;;;;;8.40;4.75;;;;;;;22.82;49.46;99149.32;1691651;83;26622;-91
2022/03/28 10:04:16;;;;;;;6.33;4.28;;;;;;;22.83;49.52;99145.36;1748069;81;25773;-91
2022/03/28 10:06:43;;;;;;;7.62;4.33;;;;;;;22.80;49.57;99139.92;1755597;81;27477;-90
2022/03/28 10:09:09;;;;;;;7.75;4.50;;;;;;;22.78;49.48;99131.15;1747112;81;25684;-90
2022/03/28 10:11:39;;;;;;;10.50;4.62;;;;;;;22.80;49.52;99123.78;1731472;82;25634;-87
2022/03/28 10:14:05;;;;;;;8.68;4.70;;;;;;;22.79;49.58;99122.15;1728855;82;25746;-88
2022/03/28 10:16:33;;;;;;;9.58;4.05;;;;;;;22.80;49.60;99115.40;1730676;82;25674;-86
2022/03/28 10:19:07;;;;;;;8.30;4.70;;;;;;;22.79;49.60;99117.37;1731151;82;27416;-86
2022/03/28 10:21:36;;;;;;;6.12;4.55;;;;;;;22.80;49.80;99116.18;1731342;82;25729;-86
2022/03/28 10:24:11;;;;;;;8.83;4.53;;;;;;;22.78;49.94;99111.59;1731601;82;25638;-85
2022/03/28 10:26:44;;;;;;;8.48;4.50;;;;;;;22.78;50.09;99106.59;1731394;82;25840;-86
2022/03/28 10:29:22;;;;;;;6.28;4.22;;;;;;;22.77;50.19;99107.17;1730972;82;25447;-89
2022/03/28 10:32:00;;;;;;;6.70;4.28;;;;;;;22.77;50.32;99102.98;1730486;81;26054;-86
2022/03/28 10:34:53;;;;;;;9.93;4.90;;;;;;;22.77;50.43;99099.41;1731291;81;25669;-87
2022/03/28 10:37:43;;;;;;;8.45;4.22;;;;;;;22.76;50.44;99093.59;1731366;82;25718;-85
2022/03/28 10:40:22;;;;;;;;;;;;;;;22.75;50.52;99088.61;1733633;82;25670;-86
2022/03/28 10:43:13;;;;;;;9.18;4.17;;;;;;;22.75;50.56;99082.22;1731714;82;25405;-85
2022/03/28 10:45:50;;;;;;;5.83;3.87;;;;;;;22.73;50.33;99079.00;1731055;82;27422;-85
2022/03/28 10:48:36;;;;;;;7.25;3.95;;;;;;;22.73;50.47;99072.83;1731364;82;25742;-85
2022/03/28 10:51:18;;;;;;;7.75;4.03;;;;;;;22.71;50.40;99069.61;1730752;82;25677;-84
2022/03/28 10:53:49;;;;;;;6.47;3.92;;;;;;;22.72;50.41;99060.64;1731588;82;26307;-84
2022/03/28 10:56:23;;;;;;;8.70;4.25;;;;;;;22.72;50.48;99056.45;1708589;82;25473;-85
2022/03/28 10:58:55;;;;;;;9.08;4.20;;;;;;;22.73;50.55;99055.25;1730708;82;28170;-85
2022/03/28 11:01:29;;;;;;;7.15;3.80;;;;;;;22.73;50.50;99043.49;1734731;82;25803;-86
2022/03/28 11:04:06;;;;;;;7.87;4.08;;;;;;;22.73;50.38;99042.09;1736171;82;25499;-85
2022/03/28 11:07:01;;;;;;;6.75;3.95;;;;;;;22.73;50.35;99035.11;1736700;81;26609;-85
2022/03/28 11:09:55;;;;;;;6.08;3.83;;;;;;;22.74;50.32;99031.13;1733253;81;25672;-86
2022/03/28 11:12:37;;;;;;;5.15;3.87;;;;;;;22.75;50.19;99027.16;1735872;82;27494;-83
2022/03/28 11:15:21;;;;;;;5.53;4.03;;;;;;;22.73;50.14;99021.14;1735738;82;25653;-85
2022/03/28 11:18:03;;;;;;;6.28;3.90;;;;;;;22.73;50.15;99014.16;1736695;82;25788;-86
2022/03/28 11:20:52;;;;;;;6.78;3.92;;;;;;;22.73;50.08;99014.16;1736767;82;25785;-89
2022/03/28 11:23:19;;;;;;;5.85;3.72;;;;;;;22.69;50.08;99007.14;1736986;82;25662;-89
2022/03/28 11:25:56;;;;;;;7.35;3.75;;;;;;;22.68;50.03;99008.34;1736934;81;27490;-93
2022/03/28 11:28:28;;;;;;;9.28;4.00;;;;;;;22.67;49.96;99001.75;1736541;81;25649;-90
2022/03/28 11:31:07;;;;;;;5.83;3.90;;;;;;;22.67;50.05;99005.94;1736666;82;25192;-92
2022/03/28 11:33:46;;;;;;;5.78;3.37;;;;;;;22.66;49.93;98997.36;1736614;81;26191;-87
2022/03/28 11:36:15;;;;;;;6.62;3.77;;;;;;;22.67;49.93;98989.98;1736077;82;25701;-87
2022/03/28 11:38:49;;;;;;;9.40;3.90;;;;;;;22.67;49.83;98988.59;1736714;82;28257;-91
2022/03/28 11:41:19;;;;;;;4.85;3.52;;;;;;;22.65;49.80;98978.39;1736666;82;25682;-87
2022/03/28 11:43:49;;;;;;;4.55;3.35;;;;;;;22.66;49.81;98977.22;1735781;82;25736;-92
2022/03/28 11:46:24;;;;;;;6.78;3.42;;;;;;;22.66;49.75;98966.63;1737197;82;25852;-93
2022/03/28 11:48:59;;;;;;;6.20;3.77;;;;;;;22.66;49.75;98959.66;1736357;82;25689;-93
2022/03/28 11:51:31;;;;;;;7.53;3.87;;;;;;;22.65;49.68;98964.42;1737019;81;27456;-91
2022/03/28 11:54:05;;;;;;;6.60;3.50;;;;;;;22.64;49.66;98953.06;1736212;82;25669;-92
2022/03/28 11:58:14;;;;;;;6.22;3.52;;;;;;;22.64;49.59;98954.45;1737866;82;25688;-91
2022/03/28 11:59:08;;;;;;;5.58;3.15;;;;;;;22.64;49.59;98945.27;1731959;82;25784;-91
2022/03/28 12:01:36;;;;;;;4.00;3.30;;;;;;;22.62;49.60;98937.27;1739564;81;25761;-91
2022/03/28 12:04:04;;;;;;;5.05;3.52;;;;;;;22.63;49.59;98933.89;1741272;82;27428;-89
2022/03/28 12:06:34;;;;;;;5.42;3.08;;;;;;;22.60;49.57;98931.30;1741195;82;25688;-92
2022/03/28 12:09:01;;;;;;;6.15;3.45;;;;;;;22.62;49.58;98916.94;1739517;82;25733;-91
2022/03/28 12:11:28;;;;;;;4.42;3.50;;;;;;;22.60;49.50;98911.75;1740157;82;25794;-92
2022/03/28 12:13:55;;;;;;;6.45;3.20;;;;;;;22.60;49.56;98907.55;1741355;82;25723;-92
2022/03/28 12:16:22;;;;;;;4.12;2.90;;;;;;;22.60;49.56;98899.77;1741356;82;27402;-92
2022/03/28 12:18:51;;;;;;;4.67;3.20;;;;;;;22.59;49.55;98896.77;1741112;82;25808;-94
2022/03/28 12:21:19;;;;;;;7.12;3.33;;;;;;;22.57;49.58;98885.96;1740825;82;25499;-90
2022/03/28 12:23:46;;;;;;;7.90;3.52;;;;;;;22.55;49.56;98884.95;1741200;81;25892;-91
2022/03/28 12:26:12;;;;;;;5.90;3.00;;;;;;;22.56;49.50;98879.56;1741337;81;25668;-91
2022/03/28 12:28:43;;;;;;;6.12;3.50;;;;;;;22.54;49.52;98879.14;1741245;82;27314;-94
2022/03/28 12:31:08;;;;;;;7.35;3.40;;;;;;;22.56;49.54;98870.38;1740447;82;25678;-94
2022/03/28 12:33:38;;;;;;;6.35;3.40;;;;;;;22.55;49.57;98864.59;1741148;82;25468;-90
2022/03/28 12:36:08;;;;;;;5.67;2.80;;;;;;;22.53;49.55;98846.83;1741435;82;25906;-93
2022/03/28 12:38:44;;;;;;;5.17;3.30;;;;;;;22.53;49.55;98846.02;1741453;81;32380;-93
2022/03/28 12:41:14;;;;;;;4.70;3.17;;;;;;;22.52;49.52;98845.24;1741289;81;27446;-89
2022/03/28 12:43:47;;;;;;;4.30;3.15;;;;;;;22.50;49.54;98835.05;1741405;82;34635;-93
2022/03/28 12:46:16;;;;;;;4.87;3.37;;;;;;;22.50;49.54;98830.86;1741395;82;25710;-92
2022/03/28 12:48:54;;;;;;;4.85;3.25;;;;;;;22.51;49.53;98821.90;1740899;82;25286;-93
2022/03/28 12:51:31;;;;;;;6.08;3.37;;;;;;;22.50;49.48;98818.30;1741006;82;25729;-92
2022/03/28 12:54:10;;;;;;;4.22;3.00;;;;;;;22.51;49.57;98831.05;1739255;82;27477;-85
2022/03/28 12:56:50;;;;;;;4.95;3.30;;;;;;;22.51;49.55;98819.89;1720706;82;26004;-86
2022/03/28 12:59:27;;;;;;;5.27;3.03;;;;;;;22.50;49.62;98809.11;1720354;82;25783;-86
2022/03/28 13:02:06;;;;;;;4.00;2.95;;;;;;;22.49;49.66;98812.52;1721357;82;25692;-85
2022/03/28 13:04:49;;;;;;;5.53;2.90;;;;;;;22.48;49.74;98808.72;1721106;83;25688;-87
2022/03/28 13:07:23;;;;;;;4.30;3.05;;;;;;;22.47;49.85;98795.93;1720858;83;27496;-86
2022/03/28 13:10:08;;;;;;;5.12;2.83;;;;;;;22.45;49.94;98789.34;1720226;82;25766;-86
2022/03/28 13:12:40;;;;;;;5.65;3.22;;;;;;;22.45;50.02;98785.15;1721076;83;25692;-86
2022/03/28 13:15:25;;;;;;;5.97;3.52;;;;;;;22.44;50.20;98781.58;1721117;83;25693;-86
2022/03/28 13:18:13;;;;;;;7.15;3.70;;;;;;;22.43;50.36;98779.95;1748727;81;25659;-86
2022/03/28 13:20:41;;;;;;;6.55;3.40;;;;;;;22.42;50.39;98769.99;1727127;82;27368;-86
2022/03/28 13:23:26;;;;;;;5.05;3.60;;;;;;;22.43;50.46;98770.80;1718178;82;25786;-87
2022/03/28 13:25:54;;;;;;;5.05;3.27;;;;;;;22.42;50.58;98765.80;1718224;83;25458;-86
2022/03/28 13:28:28;;;;;;;6.10;3.70;;;;;;;22.44;50.79;98752.27;1717902;82;25673;-87
2022/03/28 13:31:00;;;;;;;5.20;3.10;;;;;;;22.44;50.97;98755.64;1717952;83;25672;-86
2022/03/28 13:33:27;;;;;;;6.20;3.27;;;;;;;22.45;51.04;98762.81;1718084;83;27416;-86
2022/03/28 13:35:56;;;;;;;5.87;3.50;;;;;;;22.44;51.08;98754.24;1718361;82;25395;-85
2022/03/28 13:38:25;;;;;;;5.33;3.67;;;;;;;22.46;51.13;98753.85;1718177;83;25609;-86
2022/03/28 13:40:53;;;;;;;6.15;3.75;;;;;;;22.46;51.42;98746.28;1717852;82;26603;-85
2022/03/28 13:43:21;;;;;;;7.28;3.87;;;;;;;22.46;51.51;98747.68;1718385;83;25470;-86
2022/03/28 13:45:48;;;;;;;5.40;4.12;;;;;;;22.45;51.49;98740.48;1718264;83;27450;-86
2022/03/28 13:48:17;;;;;;;6.10;4.12;;;;;;;22.45;51.55;98741.88;1718087;83;25809;-86
2022/03/28 13:50:49;;;;;;;5.37;4.00;;;;;;;22.44;51.64;98729.92;1718240;83;25768;-86
2022/03/28 13:53:15;;;;;;;7.30;3.92;;;;;;;22.47;51.64;98726.13;1717904;83;25606;-86
2022/03/28 13:55:42;;;;;;;6.83;3.98;;;;;;;22.47;51.69;98727.52;1718351;82;25671;-87
2022/03/28 13:58:09;;;;;;;6.42;3.90;;;;;;;22.47;51.98;98712.16;1718272;83;27469;-89
2022/03/28 14:00:36;;;;;;;6.65;4.10;;;;;;;22.47;52.13;98711.58;1717869;83;25471;-86
2022/03/28 14:03:02;;;;;;;8.33;4.00;;;;;;;22.48;52.18;98706.19;1714659;81;25668;-90
2022/03/28 14:05:28;;;;;;;6.10;3.90;;;;;;;22.48;52.12;98704.02;1718240;83;25744;-90
2022/03/28 14:07:55;;;;;;;6.10;3.70;;;;;;;22.47;52.12;98696.22;1718308;83;25760;-91
2022/03/28 14:10:21;;;;;;;7.03;3.98;;;;;;;22.48;52.27;98692.84;1718149;83;27326;-87
2022/03/28 14:12:48;;;;;;;6.22;4.12;;;;;;;22.48;52.28;98689.44;1707410;83;25836;-89
2022/03/28 14:15:14;;;;;;;7.30;4.25;;;;;;;22.47;52.28;98680.86;1718480;82;25731;-89
2022/03/28 14:17:42;;;;;;;7.10;4.00;;;;;;;22.47;52.34;98673.08;1718121;83;25672;-86
2022/03/28 14:20:11;;;;;;;6.22;3.85;;;;;;;22.46;52.27;98671.48;1717943;82;25611;-86
2022/03/28 14:22:38;;;;;;;5.58;3.75;;;;;;;22.45;52.35;98673.47;1717949;82;27426;-86
2022/03/28 14:25:07;;;;;;;6.70;3.98;;;;;;;22.43;52.29;98664.09;1708696;83;25711;-87
2022/03/28 14:27:33;;;;;;;4.72;3.45;;;;;;;22.43;52.27;98660.52;1723494;83;25667;-87
2022/03/28 14:30:00;;;;;;;6.87;3.52;;;;;;;22.43;52.25;98654.94;1718131;83;25413;-87
2022/03/28 14:32:27;;;;;;;4.10;3.17;;;;;;;22.42;52.26;98648.55;1718186;83;25687;-86
2022/03/28 14:34:58;;;;;;;7.00;3.90;;;;;;;22.42;52.21;98654.72;1718290;83;27366;-86
2022/03/28 14:37:24;;;;;;;5.22;3.45;;;;;;;22.42;52.18;98657.50;1717933;82;25639;-86
2022/03/28 14:39:50;;;;;;;5.42;3.30;;;;;;;22.40;52.21;98648.75;1718272;83;25680;-86
2022/03/28 14:42:19;;;;;;;7.78;3.42;;;;;;;22.39;52.18;98647.16;1718386;83;26319;-90
2022/03/28 14:44:46;;;;;;;5.65;3.10;;;;;;;22.38;52.13;98639.37;1717873;82;25759;-90
2022/03/28 14:47:13;;;;;;;5.05;3.65;;;;;;;22.38;52.05;98632.98;1714417;83;28401;-90
2022/03/28 14:49:39;;;;;;;5.08;3.30;;;;;;;22.36;52.04;98636.16;1718256;83;25721;-90
2022/03/28 14:52:08;;;;;;;6.30;3.33;;;;;;;22.35;51.99;98630.97;1718212;82;25663;-90
2022/03/28 14:54:35;;;;;;;4.70;3.08;;;;;;;22.34;51.95;98623.80;1718224;83;26337;-90
2022/03/28 14:57:02;;;;;;;4.28;3.40;;;;;;;22.33;51.96;98627.18;1718170;83;25600;-90
2022/03/28 14:59:31;;;;;;;5.17;2.87;;;;;;;22.33;51.93;98621.59;1715039;83;27565;-90
2022/03/28 15:01:57;;;;;;;4.92;2.95;;;;;;;22.32;51.89;98628.38;1731186;81;25743;-90
2022/03/28 15:04:24;;;;;;;4.85;3.08;;;;;;;22.30;51.88;98619.01;1743457;82;25446;-90
2022/03/28 15:06:50;;;;;;;4.90;3.10;;;;;;;22.30;51.90;98619.01;1743363;82;25829;-88
2022/03/28 15:09:18;;;;;;;4.08;2.92;;;;;;;22.29;51.84;98613.82;1743425;82;25699;-89
2022/03/28 15:11:45;;;;;;;4.17;2.70;;;;;;;22.28;51.82;98613.63;1743286;82;27632;-89
2022/03/28 15:14:13;;;;;;;3.58;2.98;;;;;;;22.27;51.84;98605.03;1743313;82;25682;-88
2022/03/28 15:16:41;;;;;;;4.03;2.90;;;;;;;22.27;51.83;98609.22;1743211;82;25747;-89
2022/03/28 15:19:10;;;;;;;4.85;2.60;;;;;;;22.26;51.89;98602.86;1743035;82;26710;-89
2022/03/28 15:21:38;;;;;;;3.83;2.85;;;;;;;22.25;51.87;98598.45;1743154;82;25611;-90
2022/03/28 15:24:05;;;;;;;3.70;2.70;;;;;;;22.25;51.91;98599.84;1743153;82;27475;-90
2022/03/28 15:26:32;;;;;;;4.37;3.12;;;;;;;22.23;51.93;98592.48;1743378;82;25485;-90
2022/03/28 15:28:58;;;;;;;4.80;3.10;;;;;;;22.22;51.93;98588.08;1743386;82;25478;-89
2022/03/28 15:31:34;;;;;;;6.47;2.90;;;;;;;22.21;51.84;98585.09;1743371;82;25703;-90
2022/03/28 15:34:12;;;;;;;4.47;2.70;;;;;;;22.18;51.76;98589.48;1743473;82;25666;-90
2022/03/28 15:36:46;;;;;;;3.95;2.80;;;;;;;22.18;51.77;98581.69;1743190;82;27577;-90
2022/03/28 15:39:15;;;;;;;4.75;2.90;;;;;;;22.16;51.75;98584.88;1743344;82;25830;-90
2022/03/28 15:41:44;;;;;;;3.15;2.52;;;;;;;22.14;51.65;98573.91;1743475;82;25648;-86
2022/03/28 15:44:11;;;;;;;5.28;2.80;;;;;;;22.12;51.87;98570.13;1743292;82;25636;-87
2022/03/28 15:46:40;;;;;;;4.05;2.60;;;;;;;22.13;51.80;98572.33;1743603;82;25664;-86
2022/03/28 15:49:08;;;;;;;3.87;2.98;;;;;;;22.11;51.69;98566.33;1743324;82;27531;-86
2022/03/28 15:51:35;;;;;;;7.80;3.47;;;;;;;22.08;51.63;98574.09;1743328;82;26010;-88
2022/03/28 15:54:02;;;;;;;4.87;2.87;;;;;;;22.08;51.44;98565.14;1743364;82;25487;-87
2022/03/28 15:56:29;;;;;;;6.60;2.77;;;;;;;22.08;51.54;98565.14;1740313;82;25730;-87
2022/03/28 15:58:56;;;;;;;5.17;2.58;;;;;;;22.08;51.48;98560.95;1743515;82;25462;-87
2022/03/28 16:01:40;;;;;;;4.55;2.80;;;;;;;22.08;51.54;98555.95;1743294;81;26760;-87
2022/03/28 16:04:11;;;;;;;4.83;3.08;;;;;;;22.07;51.42;98555.16;1748669;81;25472;-89
2022/03/28 16:06:41;;;;;;;4.92;2.62;;;;;;;22.04;51.40;98551.75;1758427;81;25479;-86
2022/03/28 16:09:11;;;;;;;4.42;2.33;;;;;;;22.03;51.25;98550.97;1757396;81;26769;-87
2022/03/28 16:11:40;;;;;;;5.75;2.92;;;;;;;22.03;51.36;98551.56;1757479;81;25681;-87
2022/03/28 16:14:08;;;;;;;6.58;2.55;;;;;;;22.00;51.29;98548.97;1756980;81;28266;-87
2022/03/28 16:16:36;;;;;;;4.15;2.62;;;;;;;22.01;51.15;98547.77;1757135;81;25790;-86
2022/03/28 16:19:02;;;;;;;5.35;2.98;;;;;;;22.01;51.19;98544.17;1757160;81;25807;-93
2022/03/28 16:21:29;;;;;;;7.87;2.75;;;;;;;22.04;51.34;98548.96;1757371;81;25726;-90
2022/03/28 16:23:55;;;;;;;4.00;2.70;;;;;;;22.04;51.30;98551.75;1757245;81;25464;-86
2022/03/28 16:26:22;;;;;;;4.70;2.50;;;;;;;22.04;51.32;98547.56;1757350;81;27539;-91
2022/03/28 16:28:51;;;;;;;7.20;2.70;;;;;;;22.05;51.36;98544.38;1757248;81;25735;-90
2022/03/28 16:31:19;;;;;;;6.47;2.75;;;;;;;22.06;51.34;98543.80;1756863;81;25456;-88
2022/03/28 16:33:46;;;;;;;3.77;2.27;;;;;;;22.05;51.35;98544.38;1757051;81;26539;-92
2022/03/28 16:36:15;;;;;;;4.05;2.60;;;;;;;22.05;51.31;98534.62;1757041;81;25594;-92
2022/03/28 16:38:44;;;;;;;4.78;2.55;;;;;;;22.05;51.28;98524.85;1756854;81;27491;-92
2022/03/28 16:41:11;;;;;;;4.62;2.45;;;;;;;22.06;51.20;98528.45;1757189;81;25598;-93
2022/03/28 16:43:37;;;;;;;3.77;2.67;;;;;;;22.06;51.19;98520.89;1757426;81;25650;-93
2022/03/28 16:46:04;;;;;;;5.62;2.90;;;;;;;22.06;51.28;98520.89;1757360;81;25724;-88
2022/03/28 16:48:31;;;;;;;4.92;2.37;;;;;;;22.06;51.18;98514.50;1757350;81;25451;-92
2022/03/28 16:50:58;;;;;;;4.42;2.60;;;;;;;22.07;51.12;98517.48;1753679;81;28238;-91
2022/03/28 16:53:25;;;;;;;4.30;2.50;;;;;;;22.07;51.12;98517.48;1757194;81;25669;-90
2022/03/28 16:55:51;;;;;;;3.12;2.30;;;;;;;22.08;51.19;98507.94;1757382;81;25681;-91
2022/03/28 16:58:18;;;;;;;4.53;2.60;;;;;;;22.08;51.09;98514.11;1757350;81;25608;-93
2022/03/28 17:00:49;;;;;;;4.22;2.62;;;;;;;22.08;51.09;98509.92;1757351;81;25690;-92
2022/03/28 17:03:14;;;;;;;3.27;2.40;;;;;;;22.08;51.13;98508.52;1764383;81;25822;-88
2022/03/28 17:05:40;;;;;;;3.15;2.30;;;;;;;22.08;51.08;98509.92;1770918;80;25618;-88
2022/03/28 17:08:08;;;;;;;4.95;2.40;;;;;;;22.08;51.05;98504.34;1771476;80;25508;-86
2022/03/28 17:10:35;;;;;;;4.80;2.50;;;;;;;22.06;51.04;98497.76;1771014;80;25740;-86
2022/03/28 17:13:04;;;;;;;4.62;2.45;;;;;;;22.07;51.10;98499.34;1776053;80;25691;-86
2022/03/28 17:15:39;;;;;;;3.30;2.37;;;;;;;22.06;51.00;98496.36;1771035;81;28158;-85
2022/03/28 17:18:06;;;;;;;3.33;2.15;;;;;;;22.06;51.01;98490.20;1770982;80;25914;-86
2022/03/28 17:20:33;;;;;;;6.97;2.65;;;;;;;22.06;51.03;98493.57;1771370;80;25736;-87
2022/03/28 17:23:00;;;;;;;4.72;2.55;;;;;;;22.05;50.96;98490.59;1771346;81;25699;-86
2022/03/28 17:25:26;;;;;;;3.42;2.42;;;;;;;22.05;51.04;98490.59;1771395;80;25627;-86
2022/03/28 17:27:53;;;;;;;4.97;2.60;;;;;;;22.03;51.01;98490.98;1771378;81;27439;-87
2022/03/28 17:30:22;;;;;;;8.20;2.72;;;;;;;22.01;51.14;98485.58;1770830;80;25725;-86
2022/03/28 17:32:52;;;;;;;5.33;2.33;;;;;;;21.99;51.02;98487.38;1771292;81;25431;-86
2022/03/28 17:35:19;;;;;;;5.78;2.80;;;;;;;21.99;50.97;98491.55;1771432;80;25678;-87
2022/03/28 17:37:50;;;;;;;5.33;2.42;;;;;;;21.98;51.02;98485.78;1771510;81;25687;-86
2022/03/28 17:40:21;;;;;;;6.62;2.45;;;;;;;21.99;51.03;98489.38;1770084;80;25805;-85
2022/03/28 17:42:44;;;;;;;8.35;2.58;;;;;;;21.98;50.96;98487.77;1770558;80;30489;-86
2022/03/28 17:45:11;;;;;;;3.30;2.62;;;;;;;21.96;50.89;98482.58;1770737;81;25443;-88
2022/03/28 17:47:37;;;;;;;5.60;2.87;;;;;;;21.93;50.97;98480.58;1768563;81;26731;-87
2022/03/28 17:50:05;;;;;;;6.25;2.62;;;;;;;21.91;50.93;98486.56;1771139;80;25561;-87
2022/03/28 17:52:32;;;;;;;4.80;2.55;;;;;;;21.93;50.82;98480.58;1771000;80;27639;-86
2022/03/28 17:54:59;;;;;;;4.40;2.47;;;;;;;21.93;50.93;98476.40;1770932;81;25429;-86
2022/03/28 17:57:25;;;;;;;5.33;2.62;;;;;;;21.93;50.86;98476.40;1771327;81;25760;-87
2022/03/28 17:59:54;;;;;;;4.62;2.45;;;;;;;21.95;50.76;98476.81;1771362;81;25683;-86
2022/03/28 18:02:20;;;;;;;3.62;2.55;;;;;;;21.96;50.82;98467.86;1770817;80;25635;-91
2022/03/28 18:04:46;;;;;;;4.08;2.75;;;;;;;21.96;50.84;98472.81;1771546;80;28155;-91
2022/03/28 18:07:12;;;;;;;4.10;2.50;;;;;;;21.95;50.84;98465.66;1771558;81;25763;-91
2022/03/28 18:09:39;;;;;;;3.47;2.55;;;;;;;21.94;50.91;98470.42;1771649;81;25723;-88
2022/03/28 18:12:07;;;;;;;5.87;2.60;;;;;;;21.95;50.89;98472.62;1771553;81;26125;-91
2022/03/28 18:14:33;;;;;;;3.17;2.35;;;;;;;21.93;50.93;98468.84;1771690;80;25700;-90
2022/03/28 18:16:59;;;;;;;5.92;2.50;;;;;;;21.93;50.88;98460.47;1771403;81;27418;-89
2022/03/28 18:19:26;;;;;;;3.72;2.52;;;;;;;21.92;50.94;98459.47;1771390;80;25819;-89
2022/03/28 18:21:52;;;;;;;4.12;2.47;;;;;;;21.93;50.89;98459.66;1771499;80;25586;-90
2022/03/28 18:24:19;;;;;;;4.65;2.30;;;;;;;21.91;50.90;98457.27;1771100;80;25796;-91
2022/03/28 18:26:46;;;;;;;5.85;2.92;;;;;;;21.91;50.90;98455.88;1771469;81;25428;-90
2022/03/28 18:29:13;;;;;;;5.45;2.72;;;;;;;21.92;50.91;98455.28;1771594;81;26754;-86
2022/03/28 18:31:43;;;;;;;5.17;2.52;;;;;;;21.92;50.87;98450.52;1771304;80;25783;-86
2022/03/28 18:34:10;;;;;;;4.58;2.37;;;;;;;21.92;50.86;98447.73;1771626;81;25467;-85
2022/03/28 18:36:37;;;;;;;5.62;2.80;;;;;;;21.92;50.86;98449.70;1771491;81;25794;-87
2022/03/28 18:39:05;;;;;;;4.75;2.70;;;;;;;21.93;50.91;98447.91;1771789;81;25385;-87
2022/03/28 18:41:32;;;;;;;4.42;2.83;;;;;;;21.93;50.89;98447.91;1769635;81;27317;-88
2022/03/28 18:43:59;;;;;;;3.25;2.60;;;;;;;21.92;50.91;98449.70;1769750;80;25673;-89
2022/03/28 18:46:26;;;;;;;6.15;2.58;;;;;;;21.94;50.86;98445.94;1771214;81;25604;-87
2022/03/28 18:48:52;;;;;;;4.28;2.80;;;;;;;21.94;50.90;98451.52;1771166;80;25900;-90
2022/03/28 18:51:19;;;;;;;5.65;2.95;;;;;;;21.93;50.88;98449.90;1771267;81;25578;-88
2022/03/28 18:53:45;;;;;;;4.58;2.70;;;;;;;21.92;50.83;98449.13;1771375;81;27381;-89
2022/03/28 18:56:12;;;;;;;4.33;2.75;;;;;;;21.92;50.84;98449.70;1771457;80;25483;-91
2022/03/28 18:58:40;;;;;;;4.25;2.55;;;;;;;21.93;50.83;98455.48;1771460;80;25468;-92
2022/03/28 19:01:07;;;;;;;5.33;3.02;;;;;;;21.92;50.77;98456.09;1771585;81;25725;-92
2022/03/28 19:03:34;;;;;;;4.15;2.72;;;;;;;21.94;50.78;98459.88;1762795;80;25673;-91
2022/03/28 19:06:01;;;;;;;6.35;3.17;;;;;;;21.93;50.81;98460.47;1746727;81;27414;-90
2022/03/28 19:08:28;;;;;;;5.10;3.40;;;;;;;21.92;50.75;98457.48;1744086;82;25734;-90
2022/03/28 19:10:55;;;;;;;3.50;2.83;;;;;;;21.93;50.71;98452.69;1744335;82;25677;-91
2022/03/28 19:13:21;;;;;;;3.95;3.00;;;;;;;21.93;50.69;98449.90;1739993;82;25715;-91
2022/03/28 19:15:48;;;;;;;4.72;3.30;;;;;;;21.92;50.70;98453.89;1744385;82;25612;-89
2022/03/28 19:18:15;;;;;;;4.92;3.10;;;;;;;21.94;50.66;98448.72;1743966;82;27667;-88
2022/03/28 19:20:42;;;;;;;5.03;3.10;;;;;;;21.93;50.62;98443.73;1744263;82;25798;-90
2022/03/28 19:23:09;;;;;;;4.95;3.10;;;;;;;21.94;50.61;98448.11;1744292;82;25749;-90
2022/03/28 19:25:35;;;;;;;4.80;3.40;;;;;;;21.93;50.62;98437.34;1744320;82;26286;-88
2022/03/28 19:28:02;;;;;;;4.78;3.10;;;;;;;21.91;50.61;98439.13;1744245;82;25674;-92
2022/03/28 19:30:31;;;;;;;4.70;3.60;;;;;;;21.91;50.62;98434.95;1744373;82;27499;-89
2022/03/28 19:32:57;;;;;;;5.97;3.25;;;;;;;21.90;50.65;98439.53;1743822;82;25421;-89
2022/03/28 19:35:24;;;;;;;6.10;3.25;;;;;;;21.91;50.60;98438.36;1744387;82;25563;-90
2022/03/28 19:37:50;;;;;;;6.97;3.77;;;;;;;21.90;50.64;98436.74;1744217;82;25827;-91
2022/03/28 19:40:16;;;;;;;5.30;3.77;;;;;;;21.90;50.57;98436.16;1740855;82;25611;-91
2022/03/28 19:42:45;;;;;;;6.12;3.70;;;;;;;21.90;50.54;98430.58;1744401;82;27355;-91
2022/03/28 19:45:11;;;;;;;6.05;3.45;;;;;;;21.91;50.54;98435.56;1744006;82;25401;-90
2022/03/28 19:47:38;;;;;;;6.05;4.00;;;;;;;21.90;50.54;98431.16;1744425;82;25769;-88
2022/03/28 19:50:05;;;;;;;6.03;4.17;;;;;;;21.88;50.60;98425.20;1744172;82;25751;-88
2022/03/28 19:52:32;;;;;;;7.70;4.15;;;;;;;21.87;50.71;98420.21;1744551;82;25555;-87
2022/03/28 19:54:58;;;;;;;7.30;4.22;;;;;;;21.86;50.71;98420.61;1744368;82;27583;-85
2022/03/28 19:57:25;;;;;;;8.13;4.30;;;;;;;21.84;50.70;98422.39;1744342;82;25733;-86
2022/03/28 19:59:52;;;;;;;9.88;5.00;;;;;;;21.83;50.62;98412.45;1743977;82;25677;-86
2022/03/28 20:02:18;;;;;;;8.13;5.20;;;;;;;21.84;50.44;98411.86;1744120;82;26544;-86
2022/03/28 20:04:45;;;;;;;7.45;4.53;;;;;;;21.82;50.45;98402.48;1743932;81;25678;-86
2022/03/28 20:07:12;;;;;;;7.17;4.72;;;;;;;21.82;50.45;98406.67;1744077;82;27331;-86
2022/03/28 20:09:39;;;;;;;11.35;4.97;;;;;;;21.81;50.33;98398.09;1743884;82;25674;-86
2022/03/28 20:12:07;;;;;;;9.60;5.03;;;;;;;21.79;50.29;98398.48;1744304;82;25488;-86
2022/03/28 20:14:34;;;;;;;9.30;4.90;;;;;;;21.80;50.29;98389.53;1743987;82;25898;-86
2022/03/28 20:17:02;;;;;;;9.30;5.03;;;;;;;21.80;50.23;98392.32;1743882;82;25663;-86
2022/03/28 20:19:31;;;;;;;8.10;5.15;;;;;;;21.78;50.25;98382.95;1743894;82;27458;-86
2022/03/28 20:21:59;;;;;;;7.37;4.90;;;;;;;21.80;50.28;98388.94;1743641;82;25453;-86
2022/03/28 20:24:25;;;;;;;9.15;4.67;;;;;;;21.80;50.27;98380.58;1744276;82;25489;-86
2022/03/28 20:26:52;;;;;;;6.47;4.85;;;;;;;21.79;50.29;98376.17;1744236;82;25757;-86
2022/03/28 20:29:20;;;;;;;7.92;4.83;;;;;;;21.77;50.28;98382.77;1739919;82;25462;-86
2022/03/28 20:31:46;;;;;;;8.98;5.15;;;;;;;21.77;50.32;98380.56;1744097;82;27359;-86
2022/03/28 20:34:13;;;;;;;7.62;4.70;;;;;;;21.76;50.36;98374.80;1744207;82;25476;-85
2022/03/28 20:36:41;;;;;;;8.38;5.00;;;;;;;21.75;50.36;98375.34;1743862;82;25476;-87
2022/03/28 20:39:09;;;;;;;8.93;4.78;;;;;;;21.74;50.39;98375.16;1744254;82;25691;-86
2022/03/28 20:41:37;;;;;;;9.00;5.08;;;;;;;21.74;50.43;98381.32;1744255;82;25634;-86
2022/03/28 20:44:05;;;;;;;8.30;5.60;;;;;;;21.72;50.41;98367.77;1744181;82;27359;-85
2022/03/28 20:46:32;;;;;;;12.20;5.30;;;;;;;21.74;50.67;98359.02;1740823;82;25919;-86
2022/03/28 20:48:58;;;;;;;7.85;5.08;;;;;;;21.75;50.46;98357.81;1744279;82;25622;-85
2022/03/28 20:51:25;;;;;;;9.00;4.95;;;;;;;21.75;50.46;98350.84;1744238;82;26563;-86
2022/03/28 20:53:51;;;;;;;9.18;5.25;;;;;;;21.73;50.41;98342.87;1744247;82;25667;-85
2022/03/28 20:56:18;;;;;;;6.47;4.62;;;;;;;21.73;50.47;98343.48;1744146;82;27390;-86
2022/03/28 20:58:45;;;;;;;9.75;5.10;;;;;;;21.71;50.49;98339.70;1743859;82;25717;-87
2022/03/28 21:01:11;;;;;;;8.43;4.85;;;;;;;21.73;50.48;98334.50;1744275;82;25674;-85
2022/03/28 21:03:38;;;;;;;7.53;4.87;;;;;;;21.72;50.52;98337.10;1744011;81;25691;-86
2022/03/28 21:06:06;;;;;;;7.45;4.50;;;;;;;21.71;50.53;98332.73;1744330;82;25406;-92
2022/03/28 21:08:32;;;;;;;6.83;4.70;;;;;;;21.70;50.55;98333.91;1744269;82;27586;-85
2022/03/28 21:10:59;;;;;;;8.80;4.90;;;;;;;21.71;50.53;98329.13;1744343;82;25606;-88
2022/03/28 21:13:25;;;;;;;8.28;4.90;;;;;;;21.68;50.57;98325.16;1744129;82;25693;-88
2022/03/28 21:15:51;;;;;;;9.10;4.78;;;;;;;21.69;50.58;98326.74;1744101;82;25754;-86
2022/03/28 21:18:17;;;;;;;8.53;5.17;;;;;;;21.68;50.63;98323.14;1744265;82;25707;-86
2022/03/28 21:20:47;;;;;;;7.40;4.78;;;;;;;21.67;50.59;98321.56;1744258;82;27389;-86
2022/03/28 21:23:15;;;;;;;7.12;5.03;;;;;;;21.69;50.57;98321.97;1743913;82;25418;-86
2022/03/28 21:25:42;;;;;;;8.35;4.90;;;;;;;21.71;50.51;98314.60;1737998;82;25704;-87
2022/03/28 21:28:08;;;;;;;8.83;4.95;;;;;;;21.73;50.60;98316.37;1734633;81;26520;-88
2022/03/28 21:30:35;;;;;;;7.03;4.97;;;;;;;21.72;50.60;98306.42;1734761;81;25415;-88
2022/03/28 21:33:03;;;;;;;8.20;4.90;;;;;;;21.73;50.66;98314.98;1750474;80;27371;-87
2022/03/28 21:35:30;;;;;;;8.15;5.12;;;;;;;21.71;50.63;98309.03;1750129;80;25634;-87
2022/03/28 21:37:58;;;;;;;8.10;5.08;;;;;;;21.71;50.68;98306.23;1750470;81;25625;-87
2022/03/28 21:40:25;;;;;;;6.33;4.72;;;;;;;21.72;50.70;98312.00;1750432;80;25409;-88
2022/03/28 21:42:51;;;;;;;8.33;4.90;;;;;;;21.72;50.77;98305.62;1750620;81;25568;-88